Time;durP1;ratioP1;P1;durP2;ratioP2;P2;SDS_P1;SDS_P2;PMS_P1;PMS_P2;Temp;Humidity;BMP_temperature;BMP_pressure;BME280_temperature;BME280_humidity;BME280_pressure;Samples;Min_cycle;Max_cycle;Signal;HPM_P1;HPM_P2
2024/03/28 00:00:14;;;;;;;9.65;6.60;;;;;;;3.44;100.00;93774.78;1030797;28;20059;-70
2024/03/28 00:00:45;;;;;;;10.05;6.22;;;;;;;3.41;100.00;93769.38;1033501;28;20038;-71
2024/03/28 00:01:15;;;;;;;11.10;7.05;;;;;;;3.41;100.00;93772.72;1032820;28;20104;-71
2024/03/28 00:01:46;;;;;;;8.00;5.68;;;;;;;3.39;100.00;93769.66;1031134;28;20044;-71
2024/03/28 00:02:16;;;;;;;11.43;6.50;;;;;;;3.40;100.00;93775.59;1034756;28;20029;-71
2024/03/28 00:02:47;;;;;;;10.98;6.38;;;;;;;3.40;100.00;93770.41;1031107;28;20030;-71
2024/03/28 00:03:17;;;;;;;9.48;6.32;;;;;;;3.38;100.00;93778.44;1031065;28;20053;-71
2024/03/28 00:03:47;;;;;;;9.10;6.15;;;;;;;3.37;100.00;93771.72;1035011;28;20037;-71
2024/03/28 00:04:18;;;;;;;10.35;6.45;;;;;;;3.38;100.00;93781.03;1030836;28;20042;-71
2024/03/28 00:04:48;;;;;;;11.70;6.90;;;;;;;3.38;100.00;93777.66;1031126;28;20109;-71
2024/03/28 00:05:19;;;;;;;11.07;6.45;;;;;;;3.37;100.00;93782.09;1035084;28;20041;-71
2024/03/28 00:05:58;;;;;;;10.10;5.85;;;;;;;3.31;100.00;93768.34;1034870;28;20048;-71
2024/03/28 00:06:28;;;;;;;10.27;5.82;;;;;;;3.36;100.00;93777.19;1030960;28;20101;-71
2024/03/28 00:06:59;;;;;;;12.55;6.55;;;;;;;3.31;100.00;93775.38;1026932;28;20273;-71
2024/03/28 00:07:30;;;;;;;10.70;6.65;;;;;;;3.27;100.00;93766.56;1030463;28;20100;-71
2024/03/28 00:08:00;;;;;;;9.77;6.35;;;;;;;3.26;100.00;93765.81;1030945;28;20590;-71
2024/03/28 00:08:31;;;;;;;11.00;6.63;;;;;;;3.30;100.00;93784.97;1026861;28;20031;-71
2024/03/28 00:09:01;;;;;;;9.40;5.78;;;;;;;3.30;100.00;93781.59;1026120;28;20038;-71
2024/03/28 00:09:31;;;;;;;9.52;6.22;;;;;;;3.30;100.00;93784.97;1033629;28;20053;-71
2024/03/28 00:10:02;;;;;;;9.35;6.25;;;;;;;3.23;100.00;93775.91;1034945;28;20026;-71
2024/03/28 00:10:32;;;;;;;11.32;6.85;;;;;;;3.31;100.00;93785.72;1032763;28;20517;-71
2024/03/28 00:11:03;;;;;;;10.25;6.72;;;;;;;3.28;100.00;93784.44;1030786;28;20026;-71
2024/03/28 00:11:33;;;;;;;10.43;5.93;;;;;;;3.27;100.00;93782.91;1030850;28;20054;-71
2024/03/28 00:12:05;;;;;;;9.77;5.82;;;;;;;3.18;100.00;93773.34;1031067;28;20033;-72
2024/03/28 00:12:36;;;;;;;9.90;6.15;;;;;;;3.27;100.00;93792.50;1029381;28;20039;-71
2024/03/28 00:13:06;;;;;;;8.95;5.78;;;;;;;3.24;100.00;93785.25;1031131;28;20262;-71
2024/03/28 00:13:37;;;;;;;10.00;5.75;;;;;;;3.13;100.00;93774.13;1031253;28;20041;-71
2024/03/28 00:14:07;;;;;;;10.55;6.93;;;;;;;3.18;100.00;93783.69;1026952;28;20018;-71
2024/03/28 00:14:37;;;;;;;10.45;6.13;;;;;;;3.16;100.00;93781.38;1031032;28;20034;-71
2024/03/28 00:15:08;;;;;;;10.13;6.07;;;;;;;3.19;100.00;93785.28;1022970;29;20038;-71
2024/03/28 00:15:39;;;;;;;11.35;6.22;;;;;;;3.17;100.00;93784.75;1023839;28;20705;-71
2024/03/28 00:16:09;;;;;;;9.25;6.05;;;;;;;3.15;100.00;93785.00;1026264;28;20034;-72
2024/03/28 00:16:40;;;;;;;10.07;6.22;;;;;;;3.14;100.00;93785.28;1023184;28;20035;-73
2024/03/28 00:17:11;;;;;;;13.10;6.90;;;;;;;3.13;100.00;93786.31;1027233;28;20686;-71
2024/03/28 00:17:41;;;;;;;8.85;5.57;;;;;;;3.12;100.00;93789.94;1034478;28;20033;-71
2024/03/28 00:18:11;;;;;;;10.27;6.10;;;;;;;3.14;100.00;93788.63;1034942;28;20562;-71
2024/03/28 00:18:42;;;;;;;10.63;6.28;;;;;;;3.13;100.00;93800.06;1030386;28;20038;-69
2024/03/28 00:19:13;;;;;;;12.75;5.63;;;;;;;3.09;100.00;93796.44;1028606;28;20030;-72
2024/03/28 00:19:43;;;;;;;8.32;5.82;;;;;;;3.11;100.00;93799.53;1023085;28;20031;-71
2024/03/28 00:20:14;;;;;;;8.98;5.68;;;;;;;3.09;100.00;93798.25;1022943;29;20030;-71
2024/03/28 00:20:44;;;;;;;10.40;6.47;;;;;;;3.10;100.00;93807.56;1026182;28;20053;-71
2024/03/28 00:21:14;;;;;;;9.60;6.28;;;;;;;3.10;100.00;93807.56;1022899;28;20023;-69
2024/03/28 00:21:46;;;;;;;9.82;5.85;;;;;;;3.09;100.00;93809.41;1030984;28;20058;-72
2024/03/28 00:22:16;;;;;;;11.65;6.45;;;;;;;3.00;100.00;93796.19;1030877;28;20064;-72
2024/03/28 00:22:47;;;;;;;8.65;5.65;;;;;;;3.06;100.00;93804.75;1026883;28;20273;-72
2024/03/28 00:23:17;;;;;;;9.18;5.70;;;;;;;3.07;100.00;93801.88;1026781;28;20583;-69
2024/03/28 00:23:48;;;;;;;7.75;5.60;;;;;;;3.07;100.00;93801.88;1023014;28;20035;-70
2024/03/28 00:24:18;;;;;;;8.70;5.60;;;;;;;3.01;100.00;93795.13;1026913;28;20049;-70
2024/03/28 00:24:48;;;;;;;9.30;5.40;;;;;;;3.06;100.00;93800.31;1027072;28;20101;-70
2024/03/28 00:25:19;;;;;;;10.50;5.57;;;;;;;3.06;100.00;93802.16;1026849;28;20038;-70
2024/03/28 00:25:56;;;;;;;9.65;5.88;;;;;;;3.04;100.00;93797.22;1027327;28;20043;-69
2024/03/28 00:26:27;;;;;;;8.77;5.35;;;;;;;2.96;100.00;93791.81;1030296;28;20038;-69
2024/03/28 00:26:57;;;;;;;9.65;6.22;;;;;;;2.99;100.00;93796.47;1031028;28;20271;-71
2024/03/28 00:27:27;;;;;;;8.48;5.13;;;;;;;2.99;100.00;93797.25;1025839;28;20034;-70
2024/03/28 00:28:01;;;;;;;7.32;5.10;;;;;;;3.00;100.00;93798.78;1022772;29;20035;-69
2024/03/28 00:28:31;;;;;;;7.85;5.30;;;;;;;2.99;100.00;93796.47;1023880;28;20094;-69
2024/03/28 00:29:02;;;;;;;9.73;5.20;;;;;;;3.02;100.00;93794.13;1030794;28;20384;-69
2024/03/28 00:29:33;;;;;;;8.63;5.63;;;;;;;2.98;100.00;93785.31;1035367;28;20080;-71
2024/03/28 00:30:03;;;;;;;8.43;5.47;;;;;;;2.94;100.00;93784.28;1026830;28;20042;-71
2024/03/28 00:30:35;;;;;;;8.05;5.13;;;;;;;2.97;100.00;93783.75;1022954;29;20039;-71
2024/03/28 00:31:07;;;;;;;8.93;5.13;;;;;;;2.99;100.00;93783.50;1024176;28;20031;-71
2024/03/28 00:31:37;;;;;;;9.05;5.15;;;;;;;2.99;100.00;93797.25;1026677;28;20277;-71
2024/03/28 00:32:07;;;;;;;8.38;4.95;;;;;;;2.95;100.00;93775.50;1027370;28;20273;-71
2024/03/28 00:32:38;;;;;;;7.90;4.93;;;;;;;2.94;100.00;93775.75;1018780;29;20034;-72
2024/03/28 00:33:08;;;;;;;8.57;5.63;;;;;;;2.99;100.00;93780.91;1026876;28;20099;-71
2024/03/28 00:33:39;;;;;;;9.55;5.10;;;;;;;2.91;100.00;93769.25;1030800;28;20033;-71
2024/03/28 00:34:10;;;;;;;10.18;5.72;;;;;;;2.96;100.00;93782.22;1022909;28;20505;-72
2024/03/28 00:34:40;;;;;;;9.32;5.22;;;;;;;2.94;100.00;93773.91;1018828;29;20032;-72
2024/03/28 00:35:11;;;;;;;8.23;5.28;;;;;;;2.93;100.00;93774.97;1026909;28;20031;-72
2024/03/28 00:35:45;;;;;;;8.98;5.82;;;;;;;2.90;100.00;93767.72;1030998;28;20034;-72
2024/03/28 00:36:15;;;;;;;7.68;4.75;;;;;;;2.91;100.00;93773.66;1029497;28;20487;-69
2024/03/28 00:36:45;;;;;;;8.55;5.28;;;;;;;2.86;100.00;93771.09;1022896;29;20326;-72
2024/03/28 00:37:16;;;;;;;7.82;5.22;;;;;;;2.86;100.00;93771.88;1022911;29;20035;-72
2024/03/28 00:37:46;;;;;;;9.10;5.13;;;;;;;2.86;100.00;93779.66;1021858;28;20435;-69
2024/03/28 00:38:17;;;;;;;7.90;4.90;;;;;;;2.87;100.00;93778.59;1026824;28;20164;-69
2024/03/28 00:38:47;;;;;;;10.48;5.30;;;;;;;2.85;100.00;93770.34;1026459;28;20035;-69
2024/03/28 00:39:18;;;;;;;8.35;5.22;;;;;;;2.84;100.00;93773.94;1030915;28;20054;-69
2024/03/28 00:39:49;;;;;;;9.02;4.95;;;;;;;2.80;100.00;93778.09;1034704;28;20037;-71
2024/03/28 00:40:19;;;;;;;7.80;5.05;;;;;;;2.80;100.00;93778.09;1034867;28;20068;-71
2024/03/28 00:40:51;;;;;;;6.20;3.97;;;;;;;2.80;100.00;93778.88;1026953;28;20274;-70
2024/03/28 00:41:21;;;;;;;10.25;4.70;;;;;;;2.59;100.00;93741.91;1026821;28;20624;-72
2024/03/28 00:41:52;;;;;;;6.13;4.28;;;;;;;2.80;100.00;93778.09;1026686;28;20278;-68
2024/03/28 00:42:22;;;;;;;8.30;4.95;;;;;;;2.79;100.00;93776.56;1027012;28;20500;-69
2024/03/28 00:42:55;;;;;;;6.97;4.80;;;;;;;2.77;100.00;93765.69;1031711;28;20402;-70
2024/03/28 00:43:26;;;;;;;7.75;4.78;;;;;;;2.79;100.00;93781.75;1030977;28;20474;-69
2024/03/28 00:43:56;;;;;;;6.75;4.65;;;;;;;2.74;100.00;93768.78;1030608;28;20342;-70
2024/03/28 00:44:29;;;;;;;7.13;4.95;;;;;;;2.77;100.00;93774.22;1030761;28;20125;-69
2024/03/28 00:45:00;;;;;;;9.77;4.57;;;;;;;2.71;100.00;93759.72;1022775;28;20263;-70
2024/03/28 00:45:31;;;;;;;10.63;4.50;;;;;;;2.74;100.00;93761.78;1034925;28;20087;-68
2024/03/28 00:46:01;;;;;;;7.53;4.80;;;;;;;2.74;100.00;93771.38;1034917;28;20025;-69
2024/03/28 00:46:35;;;;;;;7.68;5.15;;;;;;;2.68;100.00;93770.59;1021518;29;20059;-70
2024/03/28 00:47:05;;;;;;;6.55;4.18;;;;;;;2.68;100.00;93765.41;1026885;28;20054;-70
2024/03/28 00:47:36;;;;;;;6.50;4.57;;;;;;;2.67;100.00;93774.25;1026824;28;20293;-69
2024/03/28 00:48:08;;;;;;;5.72;3.90;;;;;;;2.68;100.00;93772.41;1030973;28;20022;-69
2024/03/28 00:48:38;;;;;;;7.03;4.30;;;;;;;2.67;100.00;93766.47;1026339;28;20035;-69
2024/03/28 00:49:09;;;;;;;7.35;3.85;;;;;;;2.68;100.00;93775.00;1027180;28;20755;-69
2024/03/28 00:49:39;;;;;;;6.95;4.47;;;;;;;2.67;100.00;93773.47;1030838;28;20030;-69
2024/03/28 00:50:09;;;;;;;7.80;4.70;;;;;;;2.66;100.00;93771.91;1022549;28;20034;-68
2024/03/28 00:50:40;;;;;;;6.72;4.32;;;;;;;2.66;100.00;93772.69;1018746;29;20030;-68
2024/03/28 00:51:10;;;;;;;9.20;4.93;;;;;;;2.67;100.00;93768.28;1019122;29;20031;-68
2024/03/28 00:51:41;;;;;;;6.32;4.53;;;;;;;2.68;100.00;93768.00;1022169;28;20077;-69
2024/03/28 00:52:11;;;;;;;5.97;4.30;;;;;;;2.67;100.00;93771.66;1026798;28;20455;-68
2024/03/28 00:52:42;;;;;;;6.93;4.50;;;;;;;2.66;100.00;93771.91;1026776;28;20105;-67
2024/03/28 00:53:12;;;;;;;6.88;4.53;;;;;;;2.65;100.00;93762.59;1026777;28;20031;-68
2024/03/28 00:53:42;;;;;;;7.07;4.35;;;;;;;2.59;100.00;93757.44;1026848;28;20050;-70
2024/03/28 00:54:13;;;;;;;8.43;4.47;;;;;;;2.66;100.00;93764.16;1026644;28;20019;-68
2024/03/28 00:54:43;;;;;;;7.93;5.10;;;;;;;2.68;100.00;93764.66;1022596;29;20521;-68
2024/03/28 00:55:14;;;;;;;7.00;4.43;;;;;;;2.65;100.00;93760.78;1022761;28;20404;-67
2024/03/28 00:55:44;;;;;;;5.68;4.10;;;;;;;2.58;100.00;93750.72;1026927;28;20053;-68
2024/03/28 00:56:15;;;;;;;7.47;4.50;;;;;;;2.64;100.00;93755.84;1026861;28;20039;-70
2024/03/28 00:56:45;;;;;;;7.22;4.22;;;;;;;2.61;100.00;93754.56;1034761;28;20690;-68
2024/03/28 00:57:16;;;;;;;8.13;4.50;;;;;;;2.58;100.00;93757.66;1030663;28;20462;-68
2024/03/28 00:57:46;;;;;;;6.97;4.65;;;;;;;2.58;100.00;93747.31;1030843;28;20403;-68
2024/03/28 00:58:16;;;;;;;7.65;4.45;;;;;;;2.53;100.00;93742.94;1034875;28;20025;-68
2024/03/28 00:58:47;;;;;;;8.93;4.13;;;;;;;2.50;100.00;93743.44;1022067;28;20035;-68
2024/03/28 00:59:17;;;;;;;5.93;3.95;;;;;;;2.52;100.00;93743.97;1026938;28;20099;-68
2024/03/28 00:59:50;;;;;;;7.05;4.65;;;;;;;2.49;100.00;93751.50;1026859;28;20022;-68
2024/03/28 01:00:21;;;;;;;6.72;3.90;;;;;;;2.49;100.00;93749.69;1032055;28;20026;-68
2024/03/28 01:00:51;;;;;;;6.53;4.35;;;;;;;2.44;100.00;93746.31;1034762;28;20960;-68
2024/03/28 01:01:23;;;;;;;6.28;3.85;;;;;;;2.43;100.00;93744.75;1039019;28;20435;-68
2024/03/28 01:01:53;;;;;;;6.88;4.30;;;;;;;2.44;100.00;93749.66;1034883;28;20522;-69
2024/03/28 01:02:24;;;;;;;6.95;4.07;;;;;;;2.44;100.00;93749.66;1027854;28;20278;-70
2024/03/28 01:02:54;;;;;;;8.02;4.28;;;;;;;2.40;100.00;93746.06;1027093;28;20576;-67
2024/03/28 01:03:25;;;;;;;6.80;4.15;;;;;;;2.43;100.00;93752.53;1033864;28;20037;-68
2024/03/28 01:03:55;;;;;;;6.72;4.03;;;;;;;2.40;100.00;93756.41;1034724;28;20022;-68
2024/03/28 01:04:25;;;;;;;6.18;3.97;;;;;;;2.40;100.00;93746.06;1034785;28;20108;-68
2024/03/28 01:04:56;;;;;;;10.65;4.75;;;;;;;2.38;100.00;93750.69;1035001;28;20072;-69
2024/03/28 01:05:26;;;;;;;6.45;4.10;;;;;;;2.37;100.00;93749.16;1030779;28;20041;-69
2024/03/28 01:05:57;;;;;;;5.60;4.10;;;;;;;2.37;100.00;93749.16;1030847;28;20037;-68
2024/03/28 01:06:28;;;;;;;5.20;3.60;;;;;;;2.32;100.00;93746.59;1026944;28;20685;-68
2024/03/28 01:06:58;;;;;;;6.18;3.90;;;;;;;2.35;100.00;93751.25;1022950;28;20274;-69
2024/03/28 01:07:29;;;;;;;4.93;3.65;;;;;;;2.33;100.00;93743.72;1029611;28;20010;-68
2024/03/28 01:07:59;;;;;;;5.88;3.72;;;;;;;2.34;100.00;93744.50;1030795;28;20026;-68
2024/03/28 01:08:30;;;;;;;5.13;3.53;;;;;;;2.31;100.00;93745.03;1034968;28;20037;-68
2024/03/28 01:09:00;;;;;;;6.85;4.10;;;;;;;2.31;100.00;93750.19;1034140;28;20030;-68
2024/03/28 01:09:30;;;;;;;7.13;4.28;;;;;;;2.29;100.00;93747.09;1030918;28;20448;-68
2024/03/28 01:10:02;;;;;;;7.07;3.75;;;;;;;2.24;100.00;93745.28;1030827;28;20030;-68
2024/03/28 01:10:33;;;;;;;5.05;3.38;;;;;;;2.25;100.00;93741.69;1022758;28;20085;-68
2024/03/28 01:11:05;;;;;;;6.35;3.55;;;;;;;2.26;100.00;93739.88;1019391;28;20267;-68
2024/03/28 01:11:36;;;;;;;6.50;3.70;;;;;;;2.25;100.00;93746.06;1026805;28;20274;-69
2024/03/28 01:12:06;;;;;;;5.50;3.65;;;;;;;2.23;100.00;93742.97;1027085;28;20274;-68
2024/03/28 01:12:37;;;;;;;6.40;3.80;;;;;;;2.23;100.00;93751.50;1035197;28;20034;-68
2024/03/28 01:13:07;;;;;;;5.75;3.42;;;;;;;2.20;100.00;93740.91;1038832;28;20030;-68
2024/03/28 01:13:40;;;;;;;5.15;3.67;;;;;;;2.23;100.00;93746.31;1030711;28;20023;-70
2024/03/28 01:14:10;;;;;;;6.82;3.55;;;;;;;2.24;100.00;93745.28;1034362;28;20037;-70
2024/03/28 01:14:41;;;;;;;3.90;3.05;;;;;;;2.24;100.00;93734.94;1026425;28;20319;-69
2024/03/28 01:15:11;;;;;;;8.45;3.90;;;;;;;2.27;100.00;93738.81;1029623;28;20034;-70
2024/03/28 01:15:42;;;;;;;6.32;3.58;;;;;;;2.25;100.00;93746.06;1029529;28;20023;-71
2024/03/28 01:16:12;;;;;;;7.72;3.70;;;;;;;2.24;100.00;93739.34;1033925;28;20022;-71
2024/03/28 01:16:43;;;;;;;6.00;3.85;;;;;;;2.23;100.00;93742.97;1035030;28;20053;-71
2024/03/28 01:17:13;;;;;;;6.80;4.03;;;;;;;2.21;100.00;93740.63;1035028;28;20061;-71
2024/03/28 01:17:44;;;;;;;6.07;3.72;;;;;;;2.16;100.00;93735.47;1034781;28;20030;-71
2024/03/28 01:18:15;;;;;;;5.55;3.55;;;;;;;2.18;100.00;93741.16;1030797;28;20026;-71
2024/03/28 01:18:45;;;;;;;6.28;3.40;;;;;;;2.18;100.00;93737.78;1026420;28;20274;-71
2024/03/28 01:19:15;;;;;;;6.18;4.03;;;;;;;2.17;100.00;93744.00;1026089;28;20023;-70
2024/03/28 01:19:46;;;;;;;6.32;3.75;;;;;;;2.10;100.00;93733.91;1026719;28;20026;-71
2024/03/28 01:20:16;;;;;;;5.32;3.75;;;;;;;2.09;100.00;93738.31;1030943;28;20034;-71
2024/03/28 01:20:47;;;;;;;4.32;3.30;;;;;;;2.11;100.00;93741.41;1026724;28;20026;-71
2024/03/28 01:21:17;;;;;;;5.50;3.78;;;;;;;2.04;100.00;93725.34;1026926;28;20023;-71
2024/03/28 01:21:48;;;;;;;4.85;3.38;;;;;;;2.16;100.00;93737.28;1030685;28;20476;-71
2024/03/28 01:22:19;;;;;;;5.55;3.42;;;;;;;2.20;100.00;93739.06;1032296;28;20025;-71
2024/03/28 01:22:49;;;;;;;5.72;3.47;;;;;;;2.24;100.00;93734.94;1024384;28;20302;-71
2024/03/28 01:23:20;;;;;;;5.40;3.50;;;;;;;2.26;100.00;93737.28;1028024;28;20259;-72
2024/03/28 01:23:50;;;;;;;5.07;3.15;;;;;;;2.24;100.00;93734.16;1031805;28;20607;-72
2024/03/28 01:24:20;;;;;;;5.82;3.55;;;;;;;2.25;100.00;93735.72;1034435;28;20439;-72
2024/03/28 01:24:51;;;;;;;6.10;3.33;;;;;;;2.25;100.00;93733.91;1039517;28;20018;-71
2024/03/28 01:25:21;;;;;;;5.80;3.70;;;;;;;2.22;100.00;93729.25;1035103;28;20018;-72
2024/03/28 01:25:52;;;;;;;4.47;3.30;;;;;;;2.14;100.00;93722.00;1030612;28;20031;-71
2024/03/28 01:26:22;;;;;;;6.32;3.53;;;;;;;2.22;100.00;93731.06;1022747;29;20019;-71
2024/03/28 01:26:53;;;;;;;6.30;3.42;;;;;;;2.22;100.00;93728.47;1022951;29;20070;-71
2024/03/28 01:27:23;;;;;;;5.10;3.13;;;;;;;2.22;100.00;93731.84;1023031;28;20377;-71
2024/03/28 01:27:53;;;;;;;5.65;3.72;;;;;;;2.18;100.00;93722.25;1023160;28;20027;-71
2024/03/28 01:28:24;;;;;;;7.40;3.63;;;;;;;2.07;100.00;93713.72;1027148;28;20109;-71
2024/03/28 01:28:54;;;;;;;4.70;3.13;;;;;;;2.09;100.00;93715.03;1029570;28;20392;-71
2024/03/28 01:29:25;;;;;;;4.63;3.00;;;;;;;2.12;100.00;93722.28;1036012;28;20018;-71
2024/03/28 01:29:55;;;;;;;4.80;3.35;;;;;;;2.05;100.00;93706.25;1030612;28;20022;-71
2024/03/28 01:30:26;;;;;;;4.50;3.00;;;;;;;2.10;100.00;93713.97;1019476;29;20024;-70
2024/03/28 01:31:03;;;;;;;4.97;3.15;;;;;;;2.07;100.00;93719.66;1020684;29;20035;-71
2024/03/28 01:31:33;;;;;;;4.72;3.17;;;;;;;2.02;100.00;93709.34;1022858;29;20027;-72
2024/03/28 01:32:04;;;;;;;4.35;3.25;;;;;;;2.06;100.00;93718.13;1023814;28;20614;-71
2024/03/28 01:32:35;;;;;;;3.92;2.72;;;;;;;2.01;100.00;93710.38;1031494;28;20014;-71
2024/03/28 01:33:05;;;;;;;4.75;2.67;;;;;;;1.99;100.00;93711.66;1027920;28;20030;-71
2024/03/28 01:33:35;;;;;;;4.03;2.78;;;;;;;2.03;100.00;93723.03;1030941;28;20277;-71
2024/03/28 01:34:06;;;;;;;4.45;2.92;;;;;;;2.05;100.00;93715.81;1026515;28;20078;-71
2024/03/28 01:34:36;;;;;;;4.43;2.90;;;;;;;2.04;100.00;93715.00;1025458;28;20027;-71
2024/03/28 01:35:07;;;;;;;4.43;2.88;;;;;;;2.04;100.00;93717.59;1030789;28;20022;-71
2024/03/28 01:35:37;;;;;;;3.22;2.20;;;;;;;2.07;100.00;93713.72;1022825;29;20023;-71
2024/03/28 01:36:08;;;;;;;5.82;3.20;;;;;;;2.06;100.00;93715.53;1014545;29;20811;-71
2024/03/28 01:36:38;;;;;;;4.53;3.10;;;;;;;2.06;100.00;93718.13;1018953;29;20533;-71
2024/03/28 01:37:09;;;;;;;5.13;2.88;;;;;;;2.07;100.00;93719.66;1022996;28;20686;-71
2024/03/28 01:37:39;;;;;;;4.72;2.83;;;;;;;2.10;100.00;93715.78;1034850;28;20022;-71
2024/03/28 01:38:10;;;;;;;4.60;2.72;;;;;;;2.08;100.00;93715.31;1034708;28;20033;-71
2024/03/28 01:38:40;;;;;;;5.05;3.08;;;;;;;2.05;100.00;93716.59;1034384;28;20018;-71
2024/03/28 01:39:11;;;;;;;3.55;2.58;;;;;;;1.98;100.00;93705.72;1030959;28;20476;-71
2024/03/28 01:39:41;;;;;;;5.68;2.83;;;;;;;2.08;100.00;93716.06;1022692;29;20417;-71
2024/03/28 01:40:12;;;;;;;7.57;3.20;;;;;;;2.08;100.00;93716.06;1018590;29;20031;-71
2024/03/28 01:40:42;;;;;;;3.58;2.45;;;;;;;2.06;100.00;93712.94;1019133;28;20035;-71
2024/03/28 01:41:13;;;;;;;4.85;3.03;;;;;;;2.03;100.00;93710.88;1026646;28;20026;-71
2024/03/28 01:41:48;;;;;;;3.80;2.78;;;;;;;2.02;100.00;93717.09;1031063;28;20145;-71
2024/03/28 01:42:19;;;;;;;4.63;3.15;;;;;;;2.03;100.00;93713.47;1022630;29;20129;-71
2024/03/28 01:42:49;;;;;;;4.63;2.90;;;;;;;2.03;100.00;93710.88;1023363;28;20350;-71
2024/03/28 01:43:20;;;;;;;5.22;3.15;;;;;;;2.08;100.00;93712.72;1030987;28;20077;-71
2024/03/28 01:43:50;;;;;;;6.03;3.60;;;;;;;2.08;100.00;93710.91;1026944;28;20034;-71
2024/03/28 01:44:21;;;;;;;6.68;3.33;;;;;;;2.07;100.00;93709.31;1026809;28;20081;-72
2024/03/28 01:44:51;;;;;;;6.30;3.47;;;;;;;2.05;100.00;93718.41;1025736;28;20027;-71
2024/03/28 01:45:21;;;;;;;4.22;2.90;;;;;;;1.96;100.00;93707.78;1022659;28;20035;-71
2024/03/28 01:45:52;;;;;;;4.05;2.80;;;;;;;2.01;100.00;93712.97;1026567;28;20378;-71
2024/03/28 01:46:23;;;;;;;4.93;3.08;;;;;;;2.00;100.00;93716.56;1017637;28;20469;-71
2024/03/28 01:46:53;;;;;;;4.65;3.08;;;;;;;2.03;100.00;93708.28;1030686;28;20022;-71
2024/03/28 01:47:23;;;;;;;4.63;3.15;;;;;;;2.03;100.00;93713.47;1030677;28;20030;-71
2024/03/28 01:47:54;;;;;;;5.47;3.30;;;;;;;2.03;100.00;93717.88;1026725;28;20105;-70
2024/03/28 01:48:24;;;;;;;4.32;2.70;;;;;;;2.01;100.00;93719.94;1026590;28;20034;-71
2024/03/28 01:48:55;;;;;;;4.80;3.15;;;;;;;1.96;100.00;93712.97;1026055;28;20038;-71
2024/03/28 01:49:25;;;;;;;5.22;3.17;;;;;;;1.99;100.00;93712.44;1030541;28;20026;-70
2024/03/28 01:49:56;;;;;;;5.45;2.72;;;;;;;1.93;100.00;93697.97;1025469;28;20022;-71
2024/03/28 01:50:27;;;;;;;4.25;2.78;;;;;;;1.98;100.00;93721.25;1030551;28;20018;-70
2024/03/28 01:50:58;;;;;;;4.55;3.08;;;;;;;1.94;100.00;93714.25;1026726;28;20050;-70
2024/03/28 01:51:28;;;;;;;4.45;2.88;;;;;;;1.91;100.00;93712.94;1022682;29;20263;-71
2024/03/28 01:51:59;;;;;;;4.63;3.42;;;;;;;1.94;100.00;93709.06;1022952;28;20027;-70
2024/03/28 01:52:30;;;;;;;4.95;2.70;;;;;;;1.90;100.00;93706.22;1026651;28;20110;-71
2024/03/28 01:53:00;;;;;;;4.30;3.17;;;;;;;1.94;100.00;93714.25;1026581;28;20412;-70
2024/03/28 01:53:30;;;;;;;4.65;3.08;;;;;;;1.93;100.00;93710.13;1018796;29;20624;-71
2024/03/28 01:54:01;;;;;;;3.38;2.78;;;;;;;1.94;100.00;93717.59;1022712;29;20393;-71
2024/03/28 01:54:33;;;;;;;9.60;3.33;;;;;;;1.89;100.00;93713.22;1026678;28;20035;-71
2024/03/28 01:55:04;;;;;;;4.25;2.90;;;;;;;1.87;100.00;93709.31;1026455;28;20015;-71
2024/03/28 01:55:34;;;;;;;4.68;3.30;;;;;;;1.83;100.00;93703.13;1026676;28;20262;-71
2024/03/28 01:56:05;;;;;;;4.85;3.33;;;;;;;1.84;100.00;93710.63;1026764;28;20011;-70
2024/03/28 01:56:35;;;;;;;4.10;2.78;;;;;;;1.84;100.00;93709.84;1022993;28;20035;-71
2024/03/28 01:57:08;;;;;;;4.57;2.85;;;;;;;1.84;100.00;93707.25;1028624;28;20018;-71
2024/03/28 01:57:39;;;;;;;3.78;3.05;;;;;;;1.82;100.00;93711.91;1019206;29;20543;-71
2024/03/28 01:58:09;;;;;;;7.63;3.42;;;;;;;1.80;100.00;93704.41;1022698;29;20278;-72
2024/03/28 01:58:40;;;;;;;6.85;3.08;;;;;;;1.79;100.00;93709.84;1024253;28;20023;-71
2024/03/28 01:59:11;;;;;;;4.00;2.70;;;;;;;1.70;100.00;93696.66;1030871;28;20416;-71
2024/03/28 01:59:41;;;;;;;5.85;3.20;;;;;;;1.75;100.00;93706.22;1034722;28;20034;-71
2024/03/28 02:00:13;;;;;;;4.20;3.05;;;;;;;1.72;100.00;93706.75;1026830;28;20038;-71
2024/03/28 02:00:43;;;;;;;4.88;3.17;;;;;;;1.65;100.00;93702.59;1030222;28;20632;-69
2024/03/28 02:01:14;;;;;;;3.95;3.03;;;;;;;1.61;100.00;93688.66;1030566;28;20266;-72
2024/03/28 02:01:44;;;;;;;6.15;3.50;;;;;;;1.63;100.00;93694.31;1030684;28;20049;-71
2024/03/28 02:02:15;;;;;;;5.45;2.97;;;;;;;1.69;100.00;93696.91;1025607;28;20022;-70
2024/03/28 02:02:45;;;;;;;5.50;3.22;;;;;;;1.70;100.00;93703.63;1022707;29;20034;-71
2024/03/28 02:03:16;;;;;;;4.25;2.95;;;;;;;1.69;100.00;93691.75;1021051;28;20042;-71
2024/03/28 02:03:46;;;;;;;4.50;2.90;;;;;;;1.66;100.00;93687.84;1022775;28;20032;-71
2024/03/28 02:04:17;;;;;;;4.20;3.00;;;;;;;1.64;100.00;93689.91;1032796;28;20641;-71
2024/03/28 02:04:48;;;;;;;4.65;2.97;;;;;;;1.69;100.00;93699.50;1022636;29;20471;-71
2024/03/28 02:05:19;;;;;;;4.72;2.78;;;;;;;1.68;100.00;93700.50;1026535;28;20046;-70
2024/03/28 02:05:49;;;;;;;4.15;2.97;;;;;;;1.62;100.00;93692.78;1026289;28;20035;-70
2024/03/28 02:06:20;;;;;;;5.80;2.85;;;;;;;1.60;100.00;93687.06;1026828;28;20265;-71
2024/03/28 02:06:50;;;;;;;6.18;3.65;;;;;;;1.61;100.00;93691.22;1030635;28;20586;-71
2024/03/28 02:07:21;;;;;;;5.15;2.90;;;;;;;1.63;100.00;93689.16;1032787;28;20018;-71
2024/03/28 02:07:51;;;;;;;6.28;3.50;;;;;;;1.62;100.00;93692.78;1030648;28;20018;-71
2024/03/28 02:08:21;;;;;;;4.82;3.00;;;;;;;1.55;100.00;93684.50;1030744;28;20077;-71
2024/03/28 02:08:52;;;;;;;5.93;3.25;;;;;;;1.61;100.00;93695.59;1030098;28;20091;-71
2024/03/28 02:09:25;;;;;;;5.60;3.53;;;;;;;1.57;100.00;93689.41;1030621;28;20093;-71
2024/03/28 02:09:56;;;;;;;6.00;3.45;;;;;;;1.59;100.00;93682.16;1026694;28;20023;-71
2024/03/28 02:10:28;;;;;;;4.15;2.75;;;;;;;1.55;100.00;93689.66;1023584;28;20270;-69
2024/03/28 02:10:58;;;;;;;4.78;3.00;;;;;;;1.55;100.00;93692.25;1027180;28;20154;-71
2024/03/28 02:11:29;;;;;;;5.18;3.17;;;;;;;1.59;100.00;93692.50;1030669;28;20352;-71
2024/03/28 02:11:59;;;;;;;4.10;2.75;;;;;;;1.59;100.00;93698.44;1030997;28;20029;-71
2024/03/28 02:12:31;;;;;;;5.60;3.20;;;;;;;1.59;100.00;93697.69;1030893;28;20019;-71
2024/03/28 02:13:01;;;;;;;5.43;3.05;;;;;;;1.55;100.00;93687.06;1034911;28;20030;-71
2024/03/28 02:13:32;;;;;;;6.20;3.38;;;;;;;1.60;100.00;93694.81;1026629;28;20262;-71
2024/03/28 02:14:02;;;;;;;4.80;3.22;;;;;;;1.61;100.00;93693.81;1038699;28;20045;-71
2024/03/28 02:14:33;;;;;;;7.40;3.38;;;;;;;1.62;100.00;93699.75;1034962;28;20018;-71
2024/03/28 02:15:04;;;;;;;7.18;3.30;;;;;;;1.62;100.00;93690.19;1034904;28;20529;-71
2024/03/28 02:15:35;;;;;;;6.60;3.88;;;;;;;1.63;100.00;93678.81;1027770;28;21691;-70
2024/03/28 02:16:05;;;;;;;6.00;3.58;;;;;;;1.70;100.00;93688.91;1022679;29;20266;-71
2024/03/28 02:16:38;;;;;;;6.70;3.35;;;;;;;1.69;100.00;93694.34;1022842;29;20102;-71
2024/03/28 02:17:09;;;;;;;5.30;3.22;;;;;;;1.67;100.00;93686.81;1023684;28;20026;-71
2024/03/28 02:17:49;;;;;;;6.47;3.45;;;;;;;1.67;100.00;93692.00;1034200;28;20780;-69
2024/03/28 02:18:20;;;;;;;8.93;3.80;;;;;;;1.67;100.00;93693.81;1034105;28;20049;-70
2024/03/28 02:18:57;;;;;;;8.30;4.20;;;;;;;1.60;100.00;93688.88;1038127;28;20088;-71
2024/03/28 02:19:28;;;;;;;7.57;3.63;;;;;;;1.67;100.00;93697.16;1032440;28;20732;-70
2024/03/28 02:19:58;;;;;;;4.95;3.45;;;;;;;1.65;100.00;93701.81;1031602;28;20280;-70
2024/03/28 02:20:28;;;;;;;7.20;3.85;;;;;;;1.66;100.00;93703.38;1025165;28;20023;-70
2024/03/28 02:20:59;;;;;;;7.80;3.35;;;;;;;1.64;100.00;93695.88;1025340;28;20727;-70
2024/03/28 02:21:29;;;;;;;8.25;3.60;;;;;;;1.65;100.00;93701.81;1027107;28;20480;-71
2024/03/28 02:22:01;;;;;;;8.77;3.92;;;;;;;1.58;100.00;93694.31;1026675;28;20401;-70
2024/03/28 02:22:31;;;;;;;7.10;3.70;;;;;;;1.63;100.00;93694.31;1027172;28;20029;-70
2024/03/28 02:23:02;;;;;;;5.88;3.65;;;;;;;1.64;100.00;93693.31;1026101;28;20285;-69
2024/03/28 02:23:32;;;;;;;6.22;3.33;;;;;;;1.62;100.00;93700.53;1026890;28;20055;-71
2024/03/28 02:24:03;;;;;;;9.30;3.92;;;;;;;1.61;100.00;93693.00;1023109;28;20026;-71
2024/03/28 02:24:33;;;;;;;5.68;3.30;;;;;;;1.54;100.00;93693.28;1031228;28;20049;-71